createdAt,value
2019-02-28T00:02:23.096Z,101009.98
2019-02-28T00:04:49.191Z,101002.73
2019-02-28T00:07:17.819Z,101009.83
2019-02-28T00:09:44.397Z,101009.95
2019-02-28T00:12:13.701Z,101009.88
2019-02-28T00:14:39.718Z,101005.11
2019-02-28T00:17:06.231Z,101001.39
2019-02-28T00:19:33.924Z,101002.66
2019-02-28T00:22:00.067Z,101000.41
2019-02-28T00:24:27.170Z,100994.49
2019-02-28T00:26:54.582Z,100990.55
2019-02-28T00:29:20.884Z,100998.59
2019-02-28T00:31:49.918Z,100993.99
2019-02-28T00:34:15.096Z,100988.97
2019-02-28T00:36:41.172Z,100983.91
2019-02-28T00:39:07.392Z,100974.75
2019-02-28T00:41:33.814Z,100980.98
2019-02-28T00:43:59.904Z,100973.79
2019-02-28T00:46:26.075Z,100969.69
2019-02-28T00:48:53.011Z,100969.01
2019-02-28T00:51:20.169Z,100959.59
2019-02-28T00:53:46.262Z,100959.95
2019-02-28T00:56:12.443Z,100949.46
2019-02-28T00:58:38.697Z,100947.99
2019-02-28T01:01:04.960Z,100950.89
2019-02-28T01:03:31.191Z,100952.47
2019-02-28T01:05:57.492Z,100955.40
2019-02-28T01:08:23.843Z,100945.67
2019-02-28T01:10:49.948Z,100948.85
2019-02-28T01:13:17.161Z,100945.27
2019-02-28T01:15:44.878Z,100942.98
2019-02-28T01:18:11.405Z,100946.74
2019-02-28T01:20:37.661Z,100938.05
2019-02-28T01:23:03.996Z,100937.73
2019-02-28T01:25:30.101Z,100931.08
2019-02-28T01:27:56.419Z,100923.69
2019-02-28T01:30:22.685Z,100919.09
2019-02-28T01:32:50.895Z,100911.92
2019-02-28T01:35:17.008Z,100920.27
2019-02-28T01:37:43.313Z,100911.80
2019-02-28T01:40:11.319Z,100906.28
2019-02-28T01:42:37.465Z,100909.83
2019-02-28T01:45:07.037Z,100909.18
2019-02-28T01:47:34.392Z,100906.52
2019-02-28T01:50:00.494Z,100904.00
2019-02-28T01:52:26.708Z,100907.14
2019-02-28T01:54:52.933Z,100903.34
2019-02-28T01:57:19.237Z,100898.41
2019-02-28T01:59:45.364Z,100896.78
2019-02-28T02:02:11.672Z,100898.63
2019-02-28T02:04:37.988Z,100892.36
2019-02-28T02:07:04.277Z,100899.39
2019-02-28T02:09:30.466Z,100897.34
2019-02-28T02:11:59.128Z,100895.93
2019-02-28T02:14:25.371Z,100891.66
2019-02-28T02:16:51.407Z,100894.87
2019-02-28T02:19:18.531Z,100885.06
2019-02-28T02:21:45.005Z,100889.83
2019-02-28T02:24:11.300Z,100883.89
2019-02-28T02:26:37.409Z,100877.55
2019-02-28T02:29:09.008Z,100869.32
2019-02-28T02:31:35.309Z,100875.20
2019-02-28T02:34:05.287Z,100875.13
2019-02-28T02:36:31.491Z,100863.76
2019-02-28T02:38:57.683Z,100863.17
2019-02-28T02:41:23.736Z,100863.38
2019-02-28T02:43:49.834Z,100866.22
2019-02-28T02:46:20.164Z,100866.10
2019-02-28T02:48:43.932Z,100861.59
2019-02-28T02:51:11.339Z,100862.44
2019-02-28T02:53:42.157Z,100861.14
2019-02-28T02:56:06.147Z,100868.54
2019-02-28T02:58:33.413Z,100861.22
2019-02-28T03:00:59.607Z,100858.35
2019-02-28T03:03:25.796Z,100853.56
2019-02-28T03:05:51.887Z,100855.35
2019-02-28T03:08:17.976Z,100857.28
2019-02-28T03:10:44.242Z,100853.56
2019-02-28T03:13:10.326Z,100845.99
2019-02-28T03:15:36.437Z,100849.44
2019-02-28T03:18:06.448Z,100844.43
2019-02-28T03:20:32.641Z,100842.98
2019-02-28T03:23:02.232Z,100835.01
2019-02-28T03:25:28.271Z,100837.66
2019-02-28T03:27:56.431Z,100840.73
2019-02-28T03:30:31.119Z,100839.20
2019-02-28T03:32:51.051Z,100834.91
2019-02-28T03:35:17.177Z,100827.02
2019-02-28T03:37:43.529Z,100828.47
2019-02-28T03:40:13.060Z,100823.79
2019-02-28T03:42:39.361Z,100823.56
2019-02-28T03:45:10.650Z,100821.48
2019-02-28T03:47:36.828Z,100819.95
2019-02-28T03:50:08.519Z,100813.20
2019-02-28T03:52:41.794Z,100814.25
2019-02-28T03:55:05.494Z,100818.57
2019-02-28T03:57:31.911Z,100815.53
2019-02-28T03:59:58.077Z,100812.47
2019-02-28T04:02:24.385Z,100808.05
2019-02-28T04:04:50.953Z,100807.05
2019-02-28T04:07:17.221Z,100810.27
2019-02-28T04:09:44.311Z,100806.85
2019-02-28T04:12:11.522Z,100808.64
2019-02-28T04:14:37.636Z,100808.67
2019-02-28T04:17:06.623Z,100807.42
2019-02-28T04:19:32.937Z,100799.56
2019-02-28T04:21:59.146Z,100801.11
2019-02-28T04:24:25.251Z,100797.89
2019-02-28T04:26:51.586Z,100802.05
2019-02-28T04:29:17.668Z,100805.09
2019-02-28T04:31:43.746Z,100803.19
2019-02-28T04:34:13.058Z,100808.70
2019-02-28T04:36:37.927Z,100809.64
2019-02-28T04:39:08.514Z,100806.25
2019-02-28T04:41:36.663Z,100802.36
2019-02-28T04:44:04.972Z,100795.45
2019-02-28T04:46:33.873Z,100798.09
2019-02-28T04:48:59.972Z,100791.93
2019-02-28T04:51:26.069Z,100795.81
2019-02-28T04:53:54.100Z,100790.41
2019-02-28T04:56:20.409Z,100783.03
2019-02-28T04:58:46.481Z,100783.84
2019-02-28T05:01:13.429Z,100780.92
2019-02-28T05:03:39.712Z,100785.60
2019-02-28T05:06:07.385Z,100776.83
2019-02-28T05:08:38.560Z,100777.00
2019-02-28T05:11:04.389Z,100781.61
2019-02-28T05:13:30.451Z,100779.23
2019-02-28T05:15:56.788Z,100772.46
2019-02-28T05:18:22.915Z,100775.00
2019-02-28T05:20:49.040Z,100773.95
2019-02-28T05:23:15.151Z,100781.86
2019-02-28T05:25:41.487Z,100785.35
2019-02-28T05:28:07.625Z,100786.39
2019-02-28T05:30:33.699Z,100789.79
2019-02-28T05:32:59.827Z,100793.34
2019-02-28T05:35:28.587Z,100789.84
2019-02-28T05:37:54.811Z,100786.56
2019-02-28T05:40:20.979Z,100786.14
2019-02-28T05:42:47.220Z,100787.16
2019-02-28T05:45:14.752Z,100779.73
2019-02-28T05:47:46.119Z,100770.14
2019-02-28T05:50:15.155Z,100768.42
2019-02-28T05:52:40.306Z,100761.36
2019-02-28T05:55:08.942Z,100768.26
2019-02-28T05:57:35.159Z,100772.50
2019-02-28T06:00:09.908Z,100776.21
2019-02-28T06:02:36.207Z,100777.72
2019-02-28T06:05:08.487Z,100782.08
2019-02-28T06:07:34.904Z,100778.65
2019-02-28T06:10:09.176Z,100778.22
2019-02-28T06:12:35.257Z,100774.15
2019-02-28T06:15:09.522Z,100766.63
2019-02-28T06:17:35.712Z,100769.21
2019-02-28T06:20:08.335Z,100768.00
2019-02-28T06:22:36.198Z,100765.64
2019-02-28T06:25:09.797Z,100760.62
2019-02-28T06:27:41.673Z,100750.77
2019-02-28T06:30:10.238Z,100749.80
2019-02-28T06:32:36.441Z,100751.23
2019-02-28T06:35:16.157Z,100748.78
2019-02-28T06:37:39.792Z,100752.42
2019-02-28T06:40:13.010Z,100751.83
2019-02-28T06:42:39.305Z,100761.56
2019-02-28T06:45:11.245Z,100757.84
2019-02-28T06:47:39.076Z,100775.38
2019-02-28T06:50:09.271Z,100790.78
2019-02-28T06:52:35.387Z,100793.94
2019-02-28T06:55:03.880Z,100800.09
2019-02-28T06:57:30.357Z,100811.56
2019-02-28T06:59:56.581Z,100803.64
2019-02-28T07:02:22.853Z,100812.33
2019-02-28T07:04:49.619Z,100809.42
2019-02-28T07:07:16.774Z,100807.53
2019-02-28T07:09:42.882Z,100809.70
2019-02-28T07:12:09.183Z,100805.09
2019-02-28T07:14:35.307Z,100803.75
2019-02-28T07:17:17.541Z,100802.45
2019-02-28T07:19:43.633Z,100809.48
2019-02-28T07:22:09.859Z,100805.22
2019-02-28T07:24:37.572Z,100806.33
2019-02-28T07:27:04.323Z,100806.70
2019-02-28T07:29:32.070Z,100806.18
2019-02-28T07:32:01.249Z,100805.77
2019-02-28T07:34:26.634Z,100799.04
2019-02-28T07:36:52.722Z,100797.44
2019-02-28T07:39:18.909Z,100792.92
2019-02-28T07:41:45.127Z,100791.45
2019-02-28T07:44:11.214Z,100786.69
2019-02-28T07:46:38.806Z,100791.98
2019-02-28T07:49:05.670Z,100791.20
2019-02-28T07:51:31.871Z,100793.78
2019-02-28T07:53:59.163Z,100793.04
2019-02-28T07:56:25.286Z,100795.72
2019-02-28T07:58:52.150Z,100791.73
2019-02-28T08:01:19.575Z,100791.29
2019-02-28T08:03:45.743Z,100791.84
2019-02-28T08:06:11.839Z,100798.44
2019-02-28T08:08:38.031Z,100797.08
2019-02-28T08:11:04.460Z,100803.55
2019-02-28T08:13:30.831Z,100804.63
2019-02-28T08:16:00.236Z,100802.59
2019-02-28T08:18:25.377Z,100802.98
2019-02-28T08:20:51.535Z,100796.76
2019-02-28T08:23:17.656Z,100801.23
2019-02-28T08:25:43.858Z,100784.72
2019-02-28T08:28:10.088Z,100784.62
2019-02-28T08:30:36.391Z,100776.58
2019-02-28T08:33:02.894Z,100778.66
2019-02-28T08:35:33.936Z,100774.28
2019-02-28T08:37:57.486Z,100775.59
2019-02-28T08:40:26.768Z,100779.34
2019-02-28T08:42:52.860Z,100773.63
2019-02-28T08:45:19.150Z,100770.91
2019-02-28T08:47:45.447Z,100772.92
2019-02-28T08:50:20.212Z,100777.52
2019-02-28T08:52:48.349Z,100772.31
2019-02-28T08:55:14.778Z,100770.38
2019-02-28T08:57:44.407Z,100773.61
2019-02-28T09:00:19.044Z,100771.83
2019-02-28T09:02:45.458Z,100775.48
2019-02-28T09:05:12.459Z,100779.41
2019-02-28T09:07:38.759Z,100777.99
2019-02-28T09:10:11.808Z,100771.62
2019-02-28T09:12:36.892Z,100761.56
2019-02-28T09:15:05.422Z,100771.48
2019-02-28T09:17:31.653Z,100758.97
2019-02-28T09:19:57.923Z,100755.28
2019-02-28T09:22:26.877Z,100763.27
2019-02-28T09:24:52.580Z,100761.98
2019-02-28T09:27:18.759Z,100763.37
2019-02-28T09:29:46.158Z,100757.72
2019-02-28T09:32:13.625Z,100760.35
2019-02-28T09:34:43.667Z,100765.77
2019-02-28T09:37:09.764Z,100768.17
2019-02-28T09:39:35.849Z,100755.99
2019-02-28T09:42:02.173Z,100752.93
2019-02-28T09:44:31.534Z,100749.22
2019-02-28T09:46:56.644Z,100749.69
2019-02-28T09:51:48.712Z,100750.67
2019-02-28T09:54:14.831Z,100743.92
2019-02-28T09:56:44.477Z,100743.82
2019-02-28T09:59:09.226Z,100738.95
2019-02-28T10:01:35.440Z,100745.84
2019-02-28T10:04:01.561Z,100743.76
2019-02-28T10:06:27.964Z,100738.37
2019-02-28T10:08:54.291Z,100736.08
2019-02-28T10:11:21.810Z,100746.25
2019-02-28T10:13:49.583Z,100741.13
2019-02-28T10:16:16.788Z,100734.09
2019-02-28T10:18:43.870Z,100738.87
2019-02-28T10:21:09.956Z,100735.58
2019-02-28T10:23:36.179Z,100738.22
2019-02-28T10:26:02.660Z,100744.86
2019-02-28T10:28:29.009Z,100737.59
2019-02-28T10:30:55.214Z,100739.38
2019-02-28T10:33:21.404Z,100733.80
2019-02-28T10:35:47.621Z,100732.52
2019-02-28T10:38:13.960Z,100730.42
2019-02-28T10:40:40.191Z,100733.78
2019-02-28T10:43:06.431Z,100731.91
2019-02-28T10:45:32.846Z,100726.58
2019-02-28T10:48:02.867Z,100732.05
2019-02-28T10:50:33.259Z,100723.59
2019-02-28T10:53:04.235Z,100719.11
2019-02-28T10:55:27.759Z,100718.39
2019-02-28T10:57:53.969Z,100718.70
2019-02-28T11:00:32.770Z,100723.29
2019-02-28T11:03:00.155Z,100712.04
2019-02-28T11:05:29.917Z,100715.34
2019-02-28T11:07:56.628Z,100722.25
2019-02-28T11:10:26.556Z,100720.74
2019-02-28T11:12:54.349Z,100716.20
2019-02-28T11:15:23.046Z,100709.52
2019-02-28T11:17:49.267Z,100707.20
2019-02-28T11:20:22.080Z,100704.02
2019-02-28T11:22:44.333Z,100706.47
2019-02-28T11:25:13.654Z,100702.33
2019-02-28T11:27:40.566Z,100702.05
2019-02-28T11:30:25.841Z,100693.18
2019-02-28T11:32:52.508Z,100698.13
2019-02-28T11:35:20.145Z,100695.31
2019-02-28T11:37:47.128Z,100710.00
2019-02-28T11:40:17.099Z,100703.30
2019-02-28T11:42:43.508Z,100706.44
2019-02-28T11:45:18.549Z,100706.55
2019-02-28T11:47:45.408Z,100710.12
2019-02-28T11:50:11.675Z,100709.69
2019-02-28T11:52:38.068Z,100704.96
2019-02-28T11:55:07.644Z,100704.45
2019-02-28T11:57:33.975Z,100691.80
2019-02-28T12:00:00.447Z,100694.19
2019-02-28T12:02:29.491Z,100692.41
2019-02-28T12:04:55.813Z,100696.88
2019-02-28T12:07:22.186Z,100707.18
2019-02-28T12:09:51.356Z,100702.34
2019-02-28T12:12:16.410Z,100700.74
2019-02-28T12:14:42.690Z,100695.56
2019-02-28T12:17:08.888Z,100704.32
2019-02-28T12:19:35.125Z,100696.34
2019-02-28T12:22:01.344Z,100693.69
2019-02-28T12:24:29.368Z,100685.80
2019-02-28T12:26:56.535Z,100683.34
2019-02-28T12:29:22.781Z,100683.38
2019-02-28T12:31:48.982Z,100679.02
2019-02-28T12:34:15.222Z,100674.89
2019-02-28T12:36:41.332Z,100669.30
2019-02-28T12:39:07.802Z,100669.20
2019-02-28T12:41:35.426Z,100670.27
2019-02-28T12:44:02.288Z,100663.25
2019-02-28T12:46:31.778Z,100658.58
2019-02-28T12:48:56.914Z,100659.02
2019-02-28T12:51:23.287Z,100658.84
2019-02-28T12:53:51.668Z,100653.61
2019-02-28T12:56:18.071Z,100649.54
2019-02-28T12:58:44.405Z,100652.88
2019-02-28T13:01:11.057Z,100645.03
2019-02-28T13:03:37.397Z,100643.83
2019-02-28T13:06:03.705Z,100645.33
2019-02-28T13:08:30.045Z,100642.62
2019-02-28T13:11:03.220Z,100638.70
2019-02-28T13:13:27.757Z,100636.48
2019-02-28T13:15:52.915Z,100635.66
2019-02-28T13:18:19.137Z,100631.22
2019-02-28T13:20:45.340Z,100624.07
2019-02-28T13:23:11.892Z,100630.84
2019-02-28T13:25:39.214Z,100632.94
2019-02-28T13:28:06.448Z,100635.99
2019-02-28T13:30:32.779Z,100635.08
2019-02-28T13:32:59.064Z,100634.69
2019-02-28T13:35:28.478Z,100629.85
2019-02-28T13:37:54.695Z,100629.94
2019-02-28T13:40:22.219Z,100625.47
2019-02-28T13:42:48.793Z,100628.20
2019-02-28T13:45:22.994Z,100625.23
2019-02-28T13:47:46.391Z,100628.20
2019-02-28T13:50:33.072Z,100627.78
2019-02-28T13:53:03.413Z,100648.08
2019-02-28T13:55:27.821Z,100639.59
2019-02-28T13:57:55.106Z,100634.06
2019-02-28T14:00:23.671Z,100631.09
2019-02-28T14:02:55.718Z,100634.56
2019-02-28T14:05:23.076Z,100631.73
2019-02-28T14:07:49.675Z,100621.92
2019-02-28T14:10:18.217Z,100620.64
2019-02-28T14:12:44.618Z,100620.11
2019-02-28T14:15:15.499Z,100623.11
2019-02-28T14:17:42.271Z,100610.24
2019-02-28T14:20:09.990Z,100619.38
2019-02-28T14:22:37.420Z,100615.34
2019-02-28T14:25:06.427Z,100608.86
2019-02-28T14:27:33.378Z,100611.09
2019-02-28T14:29:59.885Z,100600.18
2019-02-28T14:32:26.231Z,100604.30
2019-02-28T14:34:52.563Z,100599.05
2019-02-28T14:37:19.614Z,100603.00
2019-02-28T14:39:46.625Z,100604.72
2019-02-28T14:42:12.783Z,100596.39
2019-02-28T14:44:39.140Z,100609.42
2019-02-28T14:47:05.432Z,100605.83
2019-02-28T14:49:31.653Z,100607.50
2019-02-28T14:52:00.425Z,100610.06
2019-02-28T14:54:25.956Z,100608.11
2019-02-28T14:56:52.123Z,100605.09
2019-02-28T14:59:18.382Z,100605.43
2019-02-28T15:01:44.613Z,100608.82
2019-02-28T15:04:18.739Z,100604.08
2019-02-28T15:06:47.232Z,100599.80
2019-02-28T15:09:14.706Z,100599.66
2019-02-28T15:11:43.609Z,100591.23
2019-02-28T15:14:09.776Z,100596.08
2019-02-28T15:16:36.047Z,100600.28
2019-02-28T15:19:18.032Z,100596.55
2019-02-28T15:21:44.376Z,100597.83
2019-02-28T15:24:10.705Z,100601.44
2019-02-28T15:26:36.937Z,100597.91
2019-02-28T15:29:05.602Z,100593.39
2019-02-28T15:31:34.366Z,100589.63
2019-02-28T15:34:07.542Z,100583.64
2019-02-28T15:36:33.766Z,100584.47
2019-02-28T15:38:59.956Z,100586.22
2019-02-28T15:41:26.188Z,100583.39
2019-02-28T15:43:53.736Z,100589.61
2019-02-28T15:46:21.820Z,100582.42
2019-02-28T15:48:49.739Z,100576.63
2019-02-28T15:51:25.782Z,100573.78
2019-02-28T15:53:53.162Z,100580.82
2019-02-28T15:56:21.721Z,100583.36
2019-02-28T15:58:47.993Z,100584.16
2019-02-28T16:01:14.333Z,100589.36
2019-02-28T16:03:40.617Z,100582.35
2019-02-28T16:06:06.848Z,100586.09
2019-02-28T16:08:33.162Z,100596.07
2019-02-28T16:10:59.409Z,100585.33
2019-02-28T16:13:25.972Z,100592.66
2019-02-28T16:15:52.864Z,100596.43
2019-02-28T16:18:19.000Z,100588.15
2019-02-28T16:20:45.200Z,100586.33
2019-02-28T16:23:11.433Z,100585.62
2019-02-28T16:25:38.594Z,100582.61
2019-02-28T16:28:07.810Z,100586.48
2019-02-28T16:30:34.435Z,100584.34
2019-02-28T16:33:01.326Z,100580.83
2019-02-28T16:35:29.020Z,100580.63
2019-02-28T16:37:55.478Z,100579.00
2019-02-28T16:40:26.926Z,100587.80
2019-02-28T16:42:52.965Z,100589.41
2019-02-28T16:45:26.860Z,100594.73
2019-02-28T16:47:55.698Z,100593.52
2019-02-28T16:50:21.217Z,100596.91
2019-02-28T16:52:47.387Z,100609.61
2019-02-28T16:55:13.746Z,100607.54
2019-02-28T16:57:39.961Z,100611.70
2019-02-28T17:00:09.989Z,100624.70
2019-02-28T17:02:36.421Z,100604.83
2019-02-28T17:05:05.223Z,100606.13
2019-02-28T17:07:31.659Z,100624.76
2019-02-28T17:09:57.973Z,100622.16
2019-02-28T17:12:28.945Z,100620.19
2019-02-28T17:14:55.203Z,100636.03
2019-02-28T17:17:25.934Z,100618.59
2019-02-28T17:19:52.207Z,100631.67
2019-02-28T17:22:18.412Z,100634.35
2019-02-28T17:24:46.154Z,100634.35
2019-02-28T17:27:24.786Z,100627.27
2019-02-28T17:29:52.868Z,100629.54
2019-02-28T17:32:19.688Z,100629.54
2019-02-28T17:34:47.243Z,100632.94
2019-02-28T17:37:13.760Z,100632.94
2019-02-28T17:39:40.223Z,100646.15
2019-02-28T17:42:08.760Z,100639.09
2019-02-28T17:44:41.551Z,100639.45
2019-02-28T17:47:29.174Z,100633.33
2019-02-28T17:50:08.445Z,100642.07
2019-02-28T17:52:47.014Z,100638.47
2019-02-28T17:55:36.865Z,100641.20
2019-02-28T17:58:06.911Z,100639.45
2019-02-28T18:00:54.536Z,100640.47
2019-02-28T18:03:36.915Z,100640.47
2019-02-28T18:06:12.845Z,100646.59
2019-02-28T18:08:45.968Z,100643.99
2019-02-28T18:11:30.940Z,100647.39
2019-02-28T18:14:11.876Z,100645.91
2019-02-28T18:17:01.357Z,100638.59
2019-02-28T18:19:43.481Z,100651.73
2019-02-28T18:22:25.738Z,100639.19
2019-02-28T18:25:14.072Z,100635.30
2019-02-28T18:27:57.418Z,100642.09
2019-02-28T18:31:00.881Z,100633.05
2019-02-28T18:33:27.184Z,100628.59
2019-02-28T18:35:53.366Z,100631.52
2019-02-28T18:38:19.674Z,100625.18
2019-02-28T18:40:45.936Z,100625.19
2019-02-28T18:43:12.359Z,100623.80
2019-02-28T18:45:38.571Z,100624.16
2019-02-28T18:48:04.990Z,100620.89
2019-02-28T18:50:31.425Z,100612.53
2019-02-28T18:52:57.781Z,100612.98
2019-02-28T18:55:24.196Z,100620.03
2019-02-28T18:57:50.522Z,100615.45
2019-02-28T19:00:18.835Z,100613.66
2019-02-28T19:02:45.269Z,100605.80
2019-02-28T19:05:12.660Z,100608.83
2019-02-28T19:07:40.364Z,100605.30
2019-02-28T19:10:08.473Z,100610.13
2019-02-28T19:12:35.589Z,100604.98
2019-02-28T19:15:02.430Z,100608.34
2019-02-28T19:17:30.125Z,100608.75
2019-02-28T19:19:57.551Z,100609.87
2019-02-28T19:22:23.887Z,100602.14
2019-02-28T19:24:49.951Z,100604.61
2019-02-28T19:27:16.263Z,100594.95
2019-02-28T19:29:42.611Z,100593.92
2019-02-28T19:32:08.897Z,100597.45
2019-02-28T19:34:35.423Z,100594.84
2019-02-28T19:37:01.662Z,100590.47
2019-02-28T19:39:27.981Z,100590.47
2019-02-28T19:41:54.422Z,100591.39
2019-02-28T19:44:20.865Z,100587.86
2019-02-28T19:46:47.183Z,100584.31
2019-02-28T19:49:13.550Z,100584.81
2019-02-28T19:51:40.448Z,100581.28
2019-02-28T19:54:06.683Z,100581.97
2019-02-28T19:56:32.915Z,100589.16
2019-02-28T19:58:59.371Z,100589.25
2019-02-28T20:01:25.674Z,100579.12
2019-02-28T20:03:51.909Z,100580.25
2019-02-28T20:06:18.251Z,100574.59
2019-02-28T20:08:44.581Z,100572.61
2019-02-28T20:11:14.104Z,100567.48
2019-02-28T20:13:40.623Z,100565.92
2019-02-28T20:16:12.588Z,100565.91
2019-02-28T20:18:47.552Z,100563.11
2019-02-28T20:21:14.472Z,100563.48
2019-02-28T20:23:42.699Z,100560.22
2019-02-28T20:26:08.953Z,100564.20
2019-02-28T20:28:35.283Z,100559.35
2019-02-28T20:33:41.042Z,100565.63
2019-02-28T20:36:10.709Z,100567.23
2019-02-28T20:38:37.079Z,100568.28
2019-02-28T20:41:10.509Z,100564.11
2019-02-28T20:43:41.091Z,100568.53
2019-02-28T20:46:10.628Z,100566.13
2019-02-28T20:48:36.925Z,100567.09
2019-02-28T20:51:09.963Z,100566.00
2019-02-28T20:53:36.417Z,100556.13
2019-02-28T20:56:09.045Z,100558.19
2019-02-28T20:58:35.306Z,100557.62
2019-02-28T21:01:06.626Z,100555.59
2019-02-28T21:03:34.507Z,100565.92
2019-02-28T21:08:40.218Z,100560.05
2019-02-28T21:11:12.542Z,100556.44
2019-02-28T21:13:38.991Z,100566.36
2019-02-28T21:16:09.405Z,100559.30
2019-02-28T21:18:35.610Z,100565.48
2019-02-28T21:21:05.894Z,100563.80
2019-02-28T21:23:32.266Z,100567.12
2019-02-28T21:25:59.380Z,100567.98
2019-02-28T21:28:27.552Z,100560.80
2019-02-28T21:30:53.761Z,100560.80
2019-02-28T21:33:20.011Z,100558.19
2019-02-28T21:35:46.438Z,100552.91
2019-02-28T21:38:13.404Z,100558.05
2019-02-28T21:40:40.947Z,100557.81
2019-02-28T21:43:09.893Z,100557.81
2019-02-28T21:45:42.398Z,100550.31
2019-02-28T21:48:16.579Z,100549.39
2019-02-28T21:50:42.973Z,100542.73
2019-02-28T21:53:09.247Z,100545.34
2019-02-28T21:55:35.611Z,100548.63
2019-02-28T21:58:13.105Z,100539.99
2019-02-28T22:00:39.577Z,100542.49
2019-02-28T22:03:06.266Z,100540.60
2019-02-28T22:05:32.665Z,100538.60
2019-02-28T22:07:58.952Z,100541.50
2019-02-28T22:10:25.386Z,100551.42
2019-02-28T22:12:53.237Z,100550.68
2019-02-28T22:15:22.211Z,100554.10
2019-02-28T22:17:48.350Z,100547.89
2019-02-28T22:20:16.560Z,100539.34
2019-02-28T22:22:42.915Z,100536.00
2019-02-28T22:25:15.754Z,100534.27
2019-02-28T22:27:42.102Z,100532.47
2019-02-28T22:30:34.792Z,100526.41
2019-02-28T22:33:32.503Z,100522.52
2019-02-28T22:36:00.499Z,100521.27
2019-02-28T22:38:33.240Z,100516.19
2019-02-28T22:40:59.473Z,100534.52
2019-02-28T22:43:25.809Z,100520.88
2019-02-28T22:45:52.057Z,100521.36
2019-02-28T22:48:18.267Z,100524.84
2019-02-28T22:50:44.618Z,100526.01
2019-02-28T22:53:10.976Z,100522.48
2019-02-28T22:55:37.082Z,100518.98
2019-02-28T22:58:08.098Z,100514.60
2019-02-28T23:01:06.853Z,100511.05
2019-02-28T23:03:35.653Z,100511.80
2019-02-28T23:06:02.207Z,100502.78
2019-02-28T23:08:28.516Z,100504.45
2019-02-28T23:10:54.807Z,100499.10
2019-02-28T23:13:21.087Z,100494.85
2019-02-28T23:15:47.322Z,100486.31
2019-02-28T23:18:14.030Z,100485.59
2019-02-28T23:20:40.211Z,100480.67
2019-02-28T23:23:06.523Z,100483.93
2019-02-28T23:25:33.071Z,100479.55
2019-02-28T23:28:23.453Z,100477.44
2019-02-28T23:30:56.341Z,100472.16
2019-02-28T23:33:22.444Z,100470.75
2019-02-28T23:35:48.764Z,100470.01
2019-02-28T23:38:14.957Z,100468.07
2019-02-28T23:40:41.148Z,100459.27
2019-02-28T23:43:07.364Z,100454.92
2019-02-28T23:45:33.693Z,100453.14
2019-02-28T23:47:59.883Z,100449.24
2019-02-28T23:50:26.213Z,100448.50
2019-02-28T23:52:52.419Z,100447.63
2019-02-28T23:55:18.523Z,100443.81
2019-02-28T23:57:44.699Z,100439.83
